sensor_id;sensor_type;location;lat;lon;timestamp;P1;durP1;ratioP1;P2;durP2;ratioP2
9334;SDS011;4706;41.844;26.082;2023-02-18T00:00:06;48.97;;;42.42;;
9334;SDS011;4706;41.844;26.082;2023-02-18T00:02:33;45.50;;;39.63;;
9334;SDS011;4706;41.844;26.082;2023-02-18T00:04:59;51.90;;;46.28;;
9334;SDS011;4706;41.844;26.082;2023-02-18T00:07:25;51.47;;;46.08;;
9334;SDS011;4706;41.844;26.082;2023-02-18T00:09:50;53.45;;;47.65;;
9334;SDS011;4706;41.844;26.082;2023-02-18T00:12:16;55.13;;;49.15;;
9334;SDS011;4706;41.844;26.082;2023-02-18T00:14:42;56.05;;;49.90;;
9334;SDS011;4706;41.844;26.082;2023-02-18T00:17:07;50.10;;;42.08;;
9334;SDS011;4706;41.844;26.082;2023-02-18T00:19:33;47.47;;;40.67;;
9334;SDS011;4706;41.844;26.082;2023-02-18T00:21:58;52.28;;;42.60;;
9334;SDS011;4706;41.844;26.082;2023-02-18T00:24:24;52.08;;;41.97;;
9334;SDS011;4706;41.844;26.082;2023-02-18T00:26:51;53.30;;;43.67;;
9334;SDS011;4706;41.844;26.082;2023-02-18T00:29:17;54.67;;;42.47;;
9334;SDS011;4706;41.844;26.082;2023-02-18T00:31:44;50.25;;;39.33;;
9334;SDS011;4706;41.844;26.082;2023-02-18T00:34:10;54.47;;;41.60;;
9334;SDS011;4706;41.844;26.082;2023-02-18T00:36:37;53.13;;;40.87;;
9334;SDS011;4706;41.844;26.082;2023-02-18T00:39:05;36.30;;;30.67;;
9334;SDS011;4706;41.844;26.082;2023-02-18T00:41:32;39.38;;;35.17;;
9334;SDS011;4706;41.844;26.082;2023-02-18T00:43:59;41.88;;;37.05;;
9334;SDS011;4706;41.844;26.082;2023-02-18T00:46:25;32.55;;;29.27;;
9334;SDS011;4706;41.844;26.082;2023-02-18T00:48:51;36.53;;;32.47;;
9334;SDS011;4706;41.844;26.082;2023-02-18T00:51:17;35.03;;;31.33;;
9334;SDS011;4706;41.844;26.082;2023-02-18T00:53:43;39.95;;;36.08;;
9334;SDS011;4706;41.844;26.082;2023-02-18T00:56:08;40.73;;;36.73;;
9334;SDS011;4706;41.844;26.082;2023-02-18T00:58:34;46.90;;;42.10;;
9334;SDS011;4706;41.844;26.082;2023-02-18T01:01:03;40.27;;;36.57;;
9334;SDS011;4706;41.844;26.082;2023-02-18T01:03:29;43.87;;;39.37;;
9334;SDS011;4706;41.844;26.082;2023-02-18T01:05:54;35.80;;;32.10;;
9334;SDS011;4706;41.844;26.082;2023-02-18T01:08:20;37.37;;;33.60;;
9334;SDS011;4706;41.844;26.082;2023-02-18T01:10:47;32.47;;;29.03;;
9334;SDS011;4706;41.844;26.082;2023-02-18T01:13:14;34.63;;;30.98;;
9334;SDS011;4706;41.844;26.082;2023-02-18T01:15:41;32.40;;;29.13;;
9334;SDS011;4706;41.844;26.082;2023-02-18T01:18:07;30.38;;;27.45;;
9334;SDS011;4706;41.844;26.082;2023-02-18T01:20:34;34.00;;;30.40;;
9334;SDS011;4706;41.844;26.082;2023-02-18T01:23:00;32.87;;;29.60;;
9334;SDS011;4706;41.844;26.082;2023-02-18T01:25:26;33.37;;;29.97;;
9334;SDS011;4706;41.844;26.082;2023-02-18T01:27:52;39.00;;;35.20;;
9334;SDS011;4706;41.844;26.082;2023-02-18T01:30:17;44.40;;;39.75;;
9334;SDS011;4706;41.844;26.082;2023-02-18T01:32:43;41.92;;;36.03;;
9334;SDS011;4706;41.844;26.082;2023-02-18T01:35:10;37.43;;;33.13;;
9334;SDS011;4706;41.844;26.082;2023-02-18T01:37:38;33.73;;;29.17;;
9334;SDS011;4706;41.844;26.082;2023-02-18T01:40:04;29.35;;;26.20;;
9334;SDS011;4706;41.844;26.082;2023-02-18T01:42:30;28.57;;;25.67;;
9334;SDS011;4706;41.844;26.082;2023-02-18T01:50:31;28.80;;;25.20;;
9334;SDS011;4706;41.844;26.082;2023-02-18T01:52:59;25.17;;;22.47;;
9334;SDS011;4706;41.844;26.082;2023-02-18T01:55:26;23.93;;;21.53;;
9334;SDS011;4706;41.844;26.082;2023-02-18T01:57:52;23.27;;;20.97;;
9334;SDS011;4706;41.844;26.082;2023-02-18T02:00:18;24.30;;;21.80;;
9334;SDS011;4706;41.844;26.082;2023-02-18T02:02:47;22.07;;;19.87;;
9334;SDS011;4706;41.844;26.082;2023-02-18T02:05:15;22.57;;;20.27;;
9334;SDS011;4706;41.844;26.082;2023-02-18T02:07:41;23.13;;;20.73;;
9334;SDS011;4706;41.844;26.082;2023-02-18T02:10:09;31.47;;;28.13;;
9334;SDS011;4706;41.844;26.082;2023-02-18T02:15:33;30.93;;;27.50;;
9334;SDS011;4706;41.844;26.082;2023-02-18T02:18:15;52.83;;;41.70;;
9334;SDS011;4706;41.844;26.082;2023-02-18T02:34:54;33.13;;;29.63;;
9334;SDS011;4706;41.844;26.082;2023-02-18T02:38:06;28.90;;;25.73;;
9334;SDS011;4706;41.844;26.082;2023-02-18T02:43:09;27.20;;;24.30;;
9334;SDS011;4706;41.844;26.082;2023-02-18T02:51:06;26.87;;;23.77;;
9334;SDS011;4706;41.844;26.082;2023-02-18T02:53:35;25.83;;;23.00;;
9334;SDS011;4706;41.844;26.082;2023-02-18T02:56:04;27.27;;;24.03;;
9334;SDS011;4706;41.844;26.082;2023-02-18T02:58:29;25.00;;;22.40;;
9334;SDS011;4706;41.844;26.082;2023-02-18T03:04:17;28.30;;;25.30;;
9334;SDS011;4706;41.844;26.082;2023-02-18T03:12:11;25.13;;;22.57;;
9334;SDS011;4706;41.844;26.082;2023-02-18T03:17:25;23.57;;;21.17;;
9334;SDS011;4706;41.844;26.082;2023-02-18T03:20:18;22.33;;;20.10;;
9334;SDS011;4706;41.844;26.082;2023-02-18T03:22:47;24.20;;;21.70;;
9334;SDS011;4706;41.844;26.082;2023-02-18T03:25:16;27.13;;;24.33;;
9334;SDS011;4706;41.844;26.082;2023-02-18T03:27:44;32.50;;;27.10;;
9334;SDS011;4706;41.844;26.082;2023-02-18T03:30:16;33.60;;;28.23;;
9334;SDS011;4706;41.844;26.082;2023-02-18T03:32:47;27.50;;;24.50;;
9334;SDS011;4706;41.844;26.082;2023-02-18T03:35:16;24.33;;;21.73;;
9334;SDS011;4706;41.844;26.082;2023-02-18T03:37:50;26.80;;;22.57;;
9334;SDS011;4706;41.844;26.082;2023-02-18T03:40:26;26.97;;;24.17;;
9334;SDS011;4706;41.844;26.082;2023-02-18T03:42:52;27.17;;;24.07;;
9334;SDS011;4706;41.844;26.082;2023-02-18T03:45:18;28.00;;;25.10;;
9334;SDS011;4706;41.844;26.082;2023-02-18T03:47:44;37.00;;;33.20;;
9334;SDS011;4706;41.844;26.082;2023-02-18T03:50:10;30.63;;;27.43;;
9334;SDS011;4706;41.844;26.082;2023-02-18T03:52:35;29.27;;;26.37;;
9334;SDS011;4706;41.844;26.082;2023-02-18T03:55:04;32.57;;;29.20;;
9334;SDS011;4706;41.844;26.082;2023-02-18T03:57:30;40.77;;;35.13;;
9334;SDS011;4706;41.844;26.082;2023-02-18T03:59:55;45.37;;;38.67;;
9334;SDS011;4706;41.844;26.082;2023-02-18T04:02:21;40.70;;;34.03;;
9334;SDS011;4706;41.844;26.082;2023-02-18T04:04:47;33.40;;;29.90;;
9334;SDS011;4706;41.844;26.082;2023-02-18T04:07:12;27.70;;;24.90;;
9334;SDS011;4706;41.844;26.082;2023-02-18T04:09:37;22.80;;;20.60;;
9334;SDS011;4706;41.844;26.082;2023-02-18T04:12:03;21.83;;;19.70;;
9334;SDS011;4706;41.844;26.082;2023-02-18T04:14:29;23.83;;;21.53;;
9334;SDS011;4706;41.844;26.082;2023-02-18T04:16:54;21.80;;;19.60;;
9334;SDS011;4706;41.844;26.082;2023-02-18T04:19:20;22.47;;;20.07;;
9334;SDS011;4706;41.844;26.082;2023-02-18T04:21:45;22.63;;;20.27;;
9334;SDS011;4706;41.844;26.082;2023-02-18T04:24:10;25.60;;;22.90;;
9334;SDS011;4706;41.844;26.082;2023-02-18T04:26:36;26.80;;;23.97;;
9334;SDS011;4706;41.844;26.082;2023-02-18T04:29:02;24.17;;;21.77;;
9334;SDS011;4706;41.844;26.082;2023-02-18T04:31:27;23.83;;;21.33;;
9334;SDS011;4706;41.844;26.082;2023-02-18T04:33:53;27.17;;;24.37;;
9334;SDS011;4706;41.844;26.082;2023-02-18T04:36:18;27.40;;;24.10;;
9334;SDS011;4706;41.844;26.082;2023-02-18T04:38:44;38.53;;;34.63;;
9334;SDS011;4706;41.844;26.082;2023-02-18T04:41:09;39.63;;;35.40;;
9334;SDS011;4706;41.844;26.082;2023-02-18T04:43:36;37.17;;;31.17;;
9334;SDS011;4706;41.844;26.082;2023-02-18T04:46:02;34.97;;;31.17;;
9334;SDS011;4706;41.844;26.082;2023-02-18T04:48:28;29.70;;;26.63;;
9334;SDS011;4706;41.844;26.082;2023-02-18T04:50:54;52.97;;;40.53;;
9334;SDS011;4706;41.844;26.082;2023-02-18T04:53:19;34.70;;;31.10;;
9334;SDS011;4706;41.844;26.082;2023-02-18T04:55:48;39.07;;;34.90;;
9334;SDS011;4706;41.844;26.082;2023-02-18T04:58:18;40.33;;;35.87;;
9334;SDS011;4706;41.844;26.082;2023-02-18T05:00:44;32.47;;;29.07;;
9334;SDS011;4706;41.844;26.082;2023-02-18T05:03:10;34.33;;;29.07;;
9334;SDS011;4706;41.844;26.082;2023-02-18T05:05:36;30.87;;;27.53;;
9334;SDS011;4706;41.844;26.082;2023-02-18T05:08:02;30.33;;;25.80;;
9334;SDS011;4706;41.844;26.082;2023-02-18T05:10:28;24.63;;;22.03;;
9334;SDS011;4706;41.844;26.082;2023-02-18T05:12:53;25.37;;;22.57;;
9334;SDS011;4706;41.844;26.082;2023-02-18T05:15:19;25.00;;;21.60;;
9334;SDS011;4706;41.844;26.082;2023-02-18T05:17:44;25.80;;;22.63;;
9334;SDS011;4706;41.844;26.082;2023-02-18T05:20:10;24.80;;;22.17;;
9334;SDS011;4706;41.844;26.082;2023-02-18T05:22:36;26.23;;;23.03;;
9334;SDS011;4706;41.844;26.082;2023-02-18T05:25:02;28.63;;;23.17;;
9334;SDS011;4706;41.844;26.082;2023-02-18T05:27:29;25.03;;;22.30;;
9334;SDS011;4706;41.844;26.082;2023-02-18T05:29:54;25.87;;;23.07;;
9334;SDS011;4706;41.844;26.082;2023-02-18T05:32:20;34.63;;;29.83;;
9334;SDS011;4706;41.844;26.082;2023-02-18T05:34:46;50.43;;;45.33;;
9334;SDS011;4706;41.844;26.082;2023-02-18T05:37:11;92.07;;;82.97;;
9334;SDS011;4706;41.844;26.082;2023-02-18T05:39:38;42.07;;;37.77;;
9334;SDS011;4706;41.844;26.082;2023-02-18T05:42:04;120.90;;;108.93;;
9334;SDS011;4706;41.844;26.082;2023-02-18T05:44:30;115.67;;;104.17;;
9334;SDS011;4706;41.844;26.082;2023-02-18T05:46:57;128.23;;;114.90;;
9334;SDS011;4706;41.844;26.082;2023-02-18T05:49:41;95.70;;;85.80;;
9334;SDS011;4706;41.844;26.082;2023-02-18T05:52:08;64.87;;;57.83;;
9334;SDS011;4706;41.844;26.082;2023-02-18T05:54:35;64.60;;;57.53;;
9334;SDS011;4706;41.844;26.082;2023-02-18T05:57:00;60.60;;;52.30;;
9334;SDS011;4706;41.844;26.082;2023-02-18T05:59:26;48.33;;;43.13;;
9334;SDS011;4706;41.844;26.082;2023-02-18T06:01:53;53.17;;;43.50;;
9334;SDS011;4706;41.844;26.082;2023-02-18T06:04:18;31.17;;;28.07;;
9334;SDS011;4706;41.844;26.082;2023-02-18T06:06:44;31.47;;;27.90;;
9334;SDS011;4706;41.844;26.082;2023-02-18T06:09:10;27.00;;;24.17;;
9334;SDS011;4706;41.844;26.082;2023-02-18T06:11:36;29.60;;;26.40;;
9334;SDS011;4706;41.844;26.082;2023-02-18T06:14:02;32.30;;;28.80;;
9334;SDS011;4706;41.844;26.082;2023-02-18T06:16:28;35.53;;;31.43;;
9334;SDS011;4706;41.844;26.082;2023-02-18T06:18:54;35.97;;;31.27;;
9334;SDS011;4706;41.844;26.082;2023-02-18T06:21:19;43.27;;;36.47;;
9334;SDS011;4706;41.844;26.082;2023-02-18T06:23:45;30.40;;;27.30;;
9334;SDS011;4706;41.844;26.082;2023-02-18T06:26:10;34.37;;;29.53;;
9334;SDS011;4706;41.844;26.082;2023-02-18T06:28:36;46.53;;;37.63;;
9334;SDS011;4706;41.844;26.082;2023-02-18T06:31:02;78.23;;;60.63;;
9334;SDS011;4706;41.844;26.082;2023-02-18T06:33:27;34.77;;;31.07;;
9334;SDS011;4706;41.844;26.082;2023-02-18T06:36:03;35.17;;;30.63;;
9334;SDS011;4706;41.844;26.082;2023-02-18T06:38:32;37.13;;;33.13;;
9334;SDS011;4706;41.844;26.082;2023-02-18T06:40:58;42.13;;;37.23;;
9334;SDS011;4706;41.844;26.082;2023-02-18T06:43:23;51.97;;;41.43;;
9334;SDS011;4706;41.844;26.082;2023-02-18T06:45:50;46.73;;;41.40;;
9334;SDS011;4706;41.844;26.082;2023-02-18T06:48:15;54.47;;;44.00;;
9334;SDS011;4706;41.844;26.082;2023-02-18T06:50:41;60.00;;;53.77;;
9334;SDS011;4706;41.844;26.082;2023-02-18T06:53:07;88.00;;;78.50;;
9334;SDS011;4706;41.844;26.082;2023-02-18T06:55:32;65.03;;;58.13;;
9334;SDS011;4706;41.844;26.082;2023-02-18T06:57:58;46.77;;;41.90;;
9334;SDS011;4706;41.844;26.082;2023-02-18T07:00:23;44.63;;;36.65;;
9334;SDS011;4706;41.844;26.082;2023-02-18T07:02:49;30.70;;;27.40;;
9334;SDS011;4706;41.844;26.082;2023-02-18T07:05:15;28.80;;;25.80;;
9334;SDS011;4706;41.844;26.082;2023-02-18T07:07:40;30.60;;;27.25;;
9334;SDS011;4706;41.844;26.082;2023-02-18T07:10:06;30.50;;;27.17;;
9334;SDS011;4706;41.844;26.082;2023-02-18T07:12:32;35.07;;;30.53;;
9334;SDS011;4706;41.844;26.082;2023-02-18T07:14:58;46.10;;;41.27;;
9334;SDS011;4706;41.844;26.082;2023-02-18T07:17:24;60.83;;;53.23;;
9334;SDS011;4706;41.844;26.082;2023-02-18T07:19:49;62.67;;;55.93;;
9334;SDS011;4706;41.844;26.082;2023-02-18T07:22:15;60.60;;;52.40;;
9334;SDS011;4706;41.844;26.082;2023-02-18T07:24:40;38.70;;;31.87;;
9334;SDS011;4706;41.844;26.082;2023-02-18T07:27:06;70.32;;;51.90;;
9334;SDS011;4706;41.844;26.082;2023-02-18T07:29:32;113.95;;;94.97;;
9334;SDS011;4706;41.844;26.082;2023-02-18T07:31:57;115.50;;;102.78;;
9334;SDS011;4706;41.844;26.082;2023-02-18T07:34:23;38.03;;;33.03;;
9334;SDS011;4706;41.844;26.082;2023-02-18T07:36:48;35.70;;;31.58;;
9334;SDS011;4706;41.844;26.082;2023-02-18T07:39:14;40.07;;;35.50;;
9334;SDS011;4706;41.844;26.082;2023-02-18T07:41:40;31.43;;;25.63;;
9334;SDS011;4706;41.844;26.082;2023-02-18T07:44:05;32.33;;;27.50;;
9334;SDS011;4706;41.844;26.082;2023-02-18T07:46:31;30.88;;;26.38;;
9334;SDS011;4706;41.844;26.082;2023-02-18T07:48:57;39.67;;;33.17;;
9334;SDS011;4706;41.844;26.082;2023-02-18T07:51:22;34.63;;;29.30;;
9334;SDS011;4706;41.844;26.082;2023-02-18T07:53:48;32.13;;;28.35;;
9334;SDS011;4706;41.844;26.082;2023-02-18T07:56:14;39.07;;;32.00;;
9334;SDS011;4706;41.844;26.082;2023-02-18T07:58:40;41.60;;;33.63;;
9334;SDS011;4706;41.844;26.082;2023-02-18T08:01:07;39.78;;;30.75;;
9334;SDS011;4706;41.844;26.082;2023-02-18T08:03:35;32.23;;;27.03;;
9334;SDS011;4706;41.844;26.082;2023-02-18T08:06:01;32.03;;;25.73;;
9334;SDS011;4706;41.844;26.082;2023-02-18T08:08:28;33.47;;;27.40;;
9334;SDS011;4706;41.844;26.082;2023-02-18T08:10:56;41.28;;;31.08;;
9334;SDS011;4706;41.844;26.082;2023-02-18T08:13:25;52.53;;;44.55;;
9334;SDS011;4706;41.844;26.082;2023-02-18T08:15:53;33.58;;;26.20;;
9334;SDS011;4706;41.844;26.082;2023-02-18T08:18:20;35.95;;;28.45;;
9334;SDS011;4706;41.844;26.082;2023-02-18T08:20:47;33.30;;;27.63;;
9334;SDS011;4706;41.844;26.082;2023-02-18T08:23:14;39.05;;;31.25;;
9334;SDS011;4706;41.844;26.082;2023-02-18T08:25:44;43.83;;;35.15;;
9334;SDS011;4706;41.844;26.082;2023-02-18T08:28:11;44.75;;;35.83;;
9334;SDS011;4706;41.844;26.082;2023-02-18T08:30:37;52.47;;;41.85;;
9334;SDS011;4706;41.844;26.082;2023-02-18T08:33:08;44.58;;;35.58;;
9334;SDS011;4706;41.844;26.082;2023-02-18T08:35:33;42.45;;;34.58;;
9334;SDS011;4706;41.844;26.082;2023-02-18T08:37:59;37.53;;;30.95;;
9334;SDS011;4706;41.844;26.082;2023-02-18T08:40:24;46.10;;;35.47;;
9334;SDS011;4706;41.844;26.082;2023-02-18T08:42:50;41.38;;;33.55;;
9334;SDS011;4706;41.844;26.082;2023-02-18T08:45:15;38.58;;;32.50;;
9334;SDS011;4706;41.844;26.082;2023-02-18T08:47:41;44.80;;;36.38;;
9334;SDS011;4706;41.844;26.082;2023-02-18T08:50:06;47.67;;;37.30;;
9334;SDS011;4706;41.844;26.082;2023-02-18T08:52:32;42.15;;;33.67;;
9334;SDS011;4706;41.844;26.082;2023-02-18T08:54:57;51.40;;;38.38;;
9334;SDS011;4706;41.844;26.082;2023-02-18T08:57:23;46.60;;;37.08;;
9334;SDS011;4706;41.844;26.082;2023-02-18T08:59:48;47.42;;;37.90;;
9334;SDS011;4706;41.844;26.082;2023-02-18T09:02:14;40.03;;;35.65;;
9334;SDS011;4706;41.844;26.082;2023-02-18T09:04:39;40.45;;;33.70;;
9334;SDS011;4706;41.844;26.082;2023-02-18T09:07:05;40.00;;;34.33;;
9334;SDS011;4706;41.844;26.082;2023-02-18T09:09:30;38.53;;;34.33;;
9334;SDS011;4706;41.844;26.082;2023-02-18T09:11:56;37.38;;;33.42;;
9334;SDS011;4706;41.844;26.082;2023-02-18T09:14:22;48.55;;;36.40;;
9334;SDS011;4706;41.844;26.082;2023-02-18T09:16:47;43.28;;;35.33;;
9334;SDS011;4706;41.844;26.082;2023-02-18T09:19:15;47.13;;;35.97;;
9334;SDS011;4706;41.844;26.082;2023-02-18T09:21:41;47.00;;;37.67;;
9334;SDS011;4706;41.844;26.082;2023-02-18T09:24:06;45.63;;;37.90;;
9334;SDS011;4706;41.844;26.082;2023-02-18T09:26:32;42.38;;;36.17;;
9334;SDS011;4706;41.844;26.082;2023-02-18T09:28:57;40.30;;;35.80;;
9334;SDS011;4706;41.844;26.082;2023-02-18T09:31:24;40.58;;;35.05;;
9334;SDS011;4706;41.844;26.082;2023-02-18T09:33:51;45.70;;;37.75;;
9334;SDS011;4706;41.844;26.082;2023-02-18T09:36:19;43.80;;;37.95;;
9334;SDS011;4706;41.844;26.082;2023-02-18T09:38:45;44.97;;;38.20;;
9334;SDS011;4706;41.844;26.082;2023-02-18T09:41:19;52.63;;;39.75;;
9334;SDS011;4706;41.844;26.082;2023-02-18T09:44:40;49.42;;;40.92;;
9334;SDS011;4706;41.844;26.082;2023-02-18T09:46:49;46.58;;;40.13;;
9334;SDS011;4706;41.844;26.082;2023-02-18T09:49:22;33.05;;;29.23;;
9334;SDS011;4706;41.844;26.082;2023-02-18T09:51:51;36.50;;;32.30;;
9334;SDS011;4706;41.844;26.082;2023-02-18T09:54:18;36.50;;;32.65;;
9334;SDS011;4706;41.844;26.082;2023-02-18T09:56:45;37.08;;;33.08;;
9334;SDS011;4706;41.844;26.082;2023-02-18T09:59:16;56.70;;;47.53;;
9334;SDS011;4706;41.844;26.082;2023-02-18T10:01:45;53.08;;;44.80;;
9334;SDS011;4706;41.844;26.082;2023-02-18T10:06:42;50.45;;;44.05;;
9334;SDS011;4706;41.844;26.082;2023-02-18T10:09:16;45.20;;;36.80;;
9334;SDS011;4706;41.844;26.082;2023-02-18T10:11:47;45.78;;;35.53;;
9334;SDS011;4706;41.844;26.082;2023-02-18T10:14:15;39.72;;;34.92;;
9334;SDS011;4706;41.844;26.082;2023-02-18T10:16:42;38.38;;;34.17;;
9334;SDS011;4706;41.844;26.082;2023-02-18T10:21:50;27.20;;;24.13;;
9334;SDS011;4706;41.844;26.082;2023-02-18T10:24:27;35.15;;;30.65;;
9334;SDS011;4706;41.844;26.082;2023-02-18T10:26:59;28.52;;;25.42;;
9334;SDS011;4706;41.844;26.082;2023-02-18T10:29:25;30.10;;;24.77;;
9334;SDS011;4706;41.844;26.082;2023-02-18T10:36:49;29.20;;;26.10;;
9334;SDS011;4706;41.844;26.082;2023-02-18T10:39:31;33.75;;;28.02;;
9334;SDS011;4706;41.844;26.082;2023-02-18T10:47:38;37.28;;;31.05;;
9334;SDS011;4706;41.844;26.082;2023-02-18T10:55:51;35.92;;;32.17;;
9334;SDS011;4706;41.844;26.082;2023-02-18T10:58:32;45.55;;;39.63;;
9334;SDS011;4706;41.844;26.082;2023-02-18T11:01:10;41.83;;;36.20;;
9334;SDS011;4706;41.844;26.082;2023-02-18T11:06:14;24.20;;;21.65;;
9334;SDS011;4706;41.844;26.082;2023-02-18T11:08:44;26.13;;;21.85;;
9334;SDS011;4706;41.844;26.082;2023-02-18T11:11:15;25.95;;;22.63;;
9334;SDS011;4706;41.844;26.082;2023-02-18T11:13:45;24.40;;;21.15;;
9334;SDS011;4706;41.844;26.082;2023-02-18T11:16:17;29.80;;;24.85;;
9334;SDS011;4706;41.844;26.082;2023-02-18T11:18:47;26.25;;;22.80;;
9334;SDS011;4706;41.844;26.082;2023-02-18T11:23:49;27.05;;;24.15;;
9334;SDS011;4706;41.844;26.082;2023-02-18T11:26:16;26.23;;;22.50;;
9334;SDS011;4706;41.844;26.082;2023-02-18T11:28:49;29.90;;;26.67;;
9334;SDS011;4706;41.844;26.082;2023-02-18T11:31:23;31.20;;;27.02;;
9334;SDS011;4706;41.844;26.082;2023-02-18T11:36:29;25.23;;;20.45;;
9334;SDS011;4706;41.844;26.082;2023-02-18T11:39:01;25.92;;;20.10;;
9334;SDS011;4706;41.844;26.082;2023-02-18T11:41:34;22.73;;;20.33;;
9334;SDS011;4706;41.844;26.082;2023-02-18T11:44:06;22.55;;;19.70;;
9334;SDS011;4706;41.844;26.082;2023-02-18T11:49:31;34.63;;;26.40;;
9334;SDS011;4706;41.844;26.082;2023-02-18T11:52:17;27.25;;;23.40;;
9334;SDS011;4706;41.844;26.082;2023-02-18T11:55:07;27.33;;;23.00;;
9334;SDS011;4706;41.844;26.082;2023-02-18T11:57:43;19.80;;;17.80;;
9334;SDS011;4706;41.844;26.082;2023-02-18T12:00:16;23.08;;;19.75;;
9334;SDS011;4706;41.844;26.082;2023-02-18T12:02:46;25.60;;;22.52;;
9334;SDS011;4706;41.844;26.082;2023-02-18T12:05:23;23.42;;;20.92;;
9334;SDS011;4706;41.844;26.082;2023-02-18T12:08:06;19.23;;;17.23;;
9334;SDS011;4706;41.844;26.082;2023-02-18T12:10:48;19.02;;;17.15;;
9334;SDS011;4706;41.844;26.082;2023-02-18T12:13:27;17.75;;;15.88;;
9334;SDS011;4706;41.844;26.082;2023-02-18T12:22:18;18.00;;;16.23;;
9334;SDS011;4706;41.844;26.082;2023-02-18T12:27:32;19.08;;;17.08;;
9334;SDS011;4706;41.844;26.082;2023-02-18T12:33:41;20.50;;;18.25;;
9334;SDS011;4706;41.844;26.082;2023-02-18T13:08:30;17.55;;;15.70;;
9334;SDS011;4706;41.844;26.082;2023-02-18T13:11:00;15.70;;;14.20;;
9334;SDS011;4706;41.844;26.082;2023-02-18T13:13:41;16.38;;;14.88;;
9334;SDS011;4706;41.844;26.082;2023-02-18T13:16:19;17.15;;;15.40;;
9334;SDS011;4706;41.844;26.082;2023-02-18T13:19:31;15.68;;;14.20;;
9334;SDS011;4706;41.844;26.082;2023-02-18T13:21:43;16.52;;;14.65;;
9334;SDS011;4706;41.844;26.082;2023-02-18T13:24:13;17.23;;;15.43;;
9334;SDS011;4706;41.844;26.082;2023-02-18T13:26:47;14.25;;;12.95;;
9334;SDS011;4706;41.844;26.082;2023-02-18T13:29:33;15.75;;;14.25;;
9334;SDS011;4706;41.844;26.082;2023-02-18T13:32:08;17.27;;;15.77;;
9334;SDS011;4706;41.844;26.082;2023-02-18T13:34:54;14.93;;;13.52;;
9334;SDS011;4706;41.844;26.082;2023-02-18T13:38:02;14.70;;;13.23;;
9334;SDS011;4706;41.844;26.082;2023-02-18T13:40:44;12.38;;;11.15;;
9334;SDS011;4706;41.844;26.082;2023-02-18T13:43:29;12.98;;;11.75;;
9334;SDS011;4706;41.844;26.082;2023-02-18T13:46:16;13.73;;;12.45;;
9334;SDS011;4706;41.844;26.082;2023-02-18T13:51:27;16.73;;;15.00;;
9334;SDS011;4706;41.844;26.082;2023-02-18T13:54:04;16.35;;;14.35;;
9334;SDS011;4706;41.844;26.082;2023-02-18T13:56:34;16.00;;;14.40;;
9334;SDS011;4706;41.844;26.082;2023-02-18T13:59:10;16.25;;;14.55;;
9334;SDS011;4706;41.844;26.082;2023-02-18T14:02:35;15.20;;;13.60;;
9334;SDS011;4706;41.844;26.082;2023-02-18T14:04:55;19.20;;;16.25;;
9334;SDS011;4706;41.844;26.082;2023-02-18T14:07:45;16.48;;;14.77;;
9334;SDS011;4706;41.844;26.082;2023-02-18T14:25:47;17.55;;;15.60;;
9334;SDS011;4706;41.844;26.082;2023-02-18T14:41:20;18.55;;;16.65;;
9334;SDS011;4706;41.844;26.082;2023-02-18T14:52:31;25.55;;;20.38;;
9334;SDS011;4706;41.844;26.082;2023-02-18T14:55:02;29.23;;;22.77;;
9334;SDS011;4706;41.844;26.082;2023-02-18T14:57:31;34.22;;;25.50;;
9334;SDS011;4706;41.844;26.082;2023-02-18T15:00:19;69.97;;;45.08;;
9334;SDS011;4706;41.844;26.082;2023-02-18T15:02:48;36.13;;;26.42;;
9334;SDS011;4706;41.844;26.082;2023-02-18T15:05:17;19.13;;;14.43;;
9334;SDS011;4706;41.844;26.082;2023-02-18T15:07:55;21.77;;;17.67;;
9334;SDS011;4706;41.844;26.082;2023-02-18T15:10:21;12.23;;;9.43;;
9334;SDS011;4706;41.844;26.082;2023-02-18T15:12:46;14.88;;;10.13;;
9334;SDS011;4706;41.844;26.082;2023-02-18T15:15:13;17.85;;;12.68;;
9334;SDS011;4706;41.844;26.082;2023-02-18T15:17:43;9.48;;;8.50;;
9334;SDS011;4706;41.844;26.082;2023-02-18T15:20:12;13.10;;;11.25;;
9334;SDS011;4706;41.844;26.082;2023-02-18T15:22:38;10.02;;;8.60;;
9334;SDS011;4706;41.844;26.082;2023-02-18T15:25:04;11.63;;;8.50;;
9334;SDS011;4706;41.844;26.082;2023-02-18T15:27:32;12.25;;;8.60;;
9334;SDS011;4706;41.844;26.082;2023-02-18T15:30:16;11.38;;;9.07;;
9334;SDS011;4706;41.844;26.082;2023-02-18T15:32:50;8.48;;;7.57;;
9334;SDS011;4706;41.844;26.082;2023-02-18T15:35:18;8.82;;;7.85;;
9334;SDS011;4706;41.844;26.082;2023-02-18T15:37:45;8.23;;;7.43;;
9334;SDS011;4706;41.844;26.082;2023-02-18T15:40:16;9.38;;;8.43;;
9334;SDS011;4706;41.844;26.082;2023-02-18T15:42:42;10.35;;;9.35;;
9334;SDS011;4706;41.844;26.082;2023-02-18T15:48:05;13.05;;;9.27;;
9334;SDS011;4706;41.844;26.082;2023-02-18T15:50:35;10.15;;;9.15;;
9334;SDS011;4706;41.844;26.082;2023-02-18T15:53:12;21.55;;;15.75;;
9334;SDS011;4706;41.844;26.082;2023-02-18T15:55:41;36.20;;;31.58;;
9334;SDS011;4706;41.844;26.082;2023-02-18T15:58:14;18.25;;;16.10;;
9334;SDS011;4706;41.844;26.082;2023-02-18T16:00:53;13.70;;;12.43;;
9334;SDS011;4706;41.844;26.082;2023-02-18T16:05:49;20.13;;;15.98;;
9334;SDS011;4706;41.844;26.082;2023-02-18T16:08:25;13.95;;;12.48;;
9334;SDS011;4706;41.844;26.082;2023-02-18T16:10:55;10.57;;;9.57;;
9334;SDS011;4706;41.844;26.082;2023-02-18T16:13:25;12.10;;;10.75;;
9334;SDS011;4706;41.844;26.082;2023-02-18T16:15:51;14.80;;;10.80;;
9334;SDS011;4706;41.844;26.082;2023-02-18T16:18:39;13.30;;;11.30;;
9334;SDS011;4706;41.844;26.082;2023-02-18T16:21:30;13.70;;;11.85;;
9334;SDS011;4706;41.844;26.082;2023-02-18T16:24:03;16.40;;;13.80;;
9334;SDS011;4706;41.844;26.082;2023-02-18T16:26:53;13.35;;;12.02;;
9334;SDS011;4706;41.844;26.082;2023-02-18T16:29:25;21.58;;;17.17;;
9334;SDS011;4706;41.844;26.082;2023-02-18T16:31:58;22.48;;;18.98;;
9334;SDS011;4706;41.844;26.082;2023-02-18T16:34:24;18.67;;;16.65;;
9334;SDS011;4706;41.844;26.082;2023-02-18T16:36:49;20.95;;;15.88;;
9334;SDS011;4706;41.844;26.082;2023-02-18T16:39:34;19.88;;;17.80;;
9334;SDS011;4706;41.844;26.082;2023-02-18T16:42:00;25.35;;;20.02;;
9334;SDS011;4706;41.844;26.082;2023-02-18T16:44:25;22.08;;;18.48;;
9334;SDS011;4706;41.844;26.082;2023-02-18T16:46:51;20.58;;;18.40;;
9334;SDS011;4706;41.844;26.082;2023-02-18T16:49:16;24.75;;;19.42;;
9334;SDS011;4706;41.844;26.082;2023-02-18T16:51:43;20.05;;;17.95;;
9334;SDS011;4706;41.844;26.082;2023-02-18T16:54:09;21.15;;;18.63;;
9334;SDS011;4706;41.844;26.082;2023-02-18T16:56:36;27.00;;;20.65;;
9334;SDS011;4706;41.844;26.082;2023-02-18T16:59:02;27.92;;;22.95;;
9334;SDS011;4706;41.844;26.082;2023-02-18T17:03:56;23.02;;;19.55;;
9334;SDS011;4706;41.844;26.082;2023-02-18T17:06:23;23.02;;;18.10;;
9334;SDS011;4706;41.844;26.082;2023-02-18T17:08:48;20.00;;;17.90;;
9334;SDS011;4706;41.844;26.082;2023-02-18T17:11:24;21.90;;;18.50;;
9334;SDS011;4706;41.844;26.082;2023-02-18T17:13:53;19.25;;;17.23;;
9334;SDS011;4706;41.844;26.082;2023-02-18T17:16:19;18.92;;;16.83;;
9334;SDS011;4706;41.844;26.082;2023-02-18T17:18:45;22.58;;;19.50;;
9334;SDS011;4706;41.844;26.082;2023-02-18T17:21:12;16.33;;;14.63;;
9334;SDS011;4706;41.844;26.082;2023-02-18T17:23:39;16.05;;;14.45;;
9334;SDS011;4706;41.844;26.082;2023-02-18T17:26:10;18.98;;;16.27;;
9334;SDS011;4706;41.844;26.082;2023-02-18T17:28:49;19.55;;;17.55;;
9334;SDS011;4706;41.844;26.082;2023-02-18T17:31:33;18.58;;;16.60;;
9334;SDS011;4706;41.844;26.082;2023-02-18T17:34:03;20.40;;;18.20;;